PMDY

Henderson Field Airport

Midway Atoll, , Midway Islands
PMDY 251736Z 2518/2618 36009KT P6SM SCT025 SCT035 FM252100 02012KT P6SM SCT030 BKN045
Issued Valid From Valid To
Sep-25 @ 17:36 UTC
(2 hours ago)
Sep-25 @ 18:00 UTC
(an hour ago)
Sep-26 @ 18:00 UTC
(in 23 hours)
Sep-25 @ 18:00 to Sep-25 @ 21:00
PMDY 251736Z 2518/2618 36009KT P6SM SCT025 SCT035
Wind Visibility Clouds
360° at 9 knots 10,000+ meters
  • Scattered at 2,500' AGL
  • Scattered at 3,500' AGL
From Sep-25 @ 21:00 to Sep-26 @ 18:00
FM252100 02012KT P6SM SCT030 BKN045
Wind Visibility Clouds
20° at 12 knots 10,000+ meters
  • Scattered at 3,000' AGL
  • Broken at 4,500' AGL
PMDY 251736Z 2518/2618 36009KT P6SM SCT025 SCT035 FM252100 02012KT P6SM SCT030 BKN045
Issued Sep-25 @ 17:36 UTC
(2 hours ago)
Valid From Sep-25 @ 18:00 UTC
(an hour ago)
Valid To Sep-26 @ 18:00 UTC
(in 23 hours)
Sep-25 @ 18:00 - Sep-25 @ 21:00
Wind Visibility
360° at 9 knots 10,000+ meters
Clouds
  • Scattered at 2,500' AGL
  • Scattered at 3,500' AGL
From Sep-25 @ 21:00 - Sep-26 @ 18:00
Wind Visibility
20° at 12 knots 10,000+ meters
Clouds
  • Scattered at 3,000' AGL
  • Broken at 4,500' AGL